sensor_id;sensor_type;location;lat;lon;timestamp;P1;durP1;ratioP1;P2;durP2;ratioP2
30173;SDS011;16985;50.814;8.530;2023-03-14T00:00:49;9.32;;;1.60;;
30173;SDS011;16985;50.814;8.530;2023-03-14T00:03:18;4.95;;;1.60;;
30173;SDS011;16985;50.814;8.530;2023-03-14T00:05:44;3.80;;;1.40;;
30173;SDS011;16985;50.814;8.530;2023-03-14T00:08:16;1.40;;;1.15;;
30173;SDS011;16985;50.814;8.530;2023-03-14T00:10:46;2.42;;;1.70;;
30173;SDS011;16985;50.814;8.530;2023-03-14T00:13:15;3.40;;;1.00;;
30173;SDS011;16985;50.814;8.530;2023-03-14T00:15:41;2.75;;;1.75;;
30173;SDS011;16985;50.814;8.530;2023-03-14T00:18:12;2.92;;;1.10;;
30173;SDS011;16985;50.814;8.530;2023-03-14T00:20:44;2.63;;;1.00;;
30173;SDS011;16985;50.814;8.530;2023-03-14T00:23:10;1.75;;;1.10;;
30173;SDS011;16985;50.814;8.530;2023-03-14T00:25:36;6.47;;;1.40;;
30173;SDS011;16985;50.814;8.530;2023-03-14T00:28:02;7.10;;;1.58;;
30173;SDS011;16985;50.814;8.530;2023-03-14T00:30:28;3.67;;;1.25;;
30173;SDS011;16985;50.814;8.530;2023-03-14T00:32:53;1.98;;;0.90;;
30173;SDS011;16985;50.814;8.530;2023-03-14T00:35:19;4.57;;;1.38;;
30173;SDS011;16985;50.814;8.530;2023-03-14T00:37:45;2.45;;;1.52;;
30173;SDS011;16985;50.814;8.530;2023-03-14T00:40:11;4.00;;;1.00;;
30173;SDS011;16985;50.814;8.530;2023-03-14T00:42:37;1.40;;;1.30;;
30173;SDS011;16985;50.814;8.530;2023-03-14T00:45:03;3.67;;;1.30;;
30173;SDS011;16985;50.814;8.530;2023-03-14T00:47:29;3.55;;;1.98;;
30173;SDS011;16985;50.814;8.530;2023-03-14T00:49:55;2.38;;;1.20;;
30173;SDS011;16985;50.814;8.530;2023-03-14T00:52:22;3.13;;;1.50;;
30173;SDS011;16985;50.814;8.530;2023-03-14T00:54:47;4.13;;;1.90;;
30173;SDS011;16985;50.814;8.530;2023-03-14T00:57:13;3.47;;;1.52;;
30173;SDS011;16985;50.814;8.530;2023-03-14T00:59:39;3.75;;;1.60;;
30173;SDS011;16985;50.814;8.530;2023-03-14T01:02:05;4.22;;;1.83;;
30173;SDS011;16985;50.814;8.530;2023-03-14T01:04:31;3.72;;;1.95;;
30173;SDS011;16985;50.814;8.530;2023-03-14T01:06:56;4.45;;;1.70;;
30173;SDS011;16985;50.814;8.530;2023-03-14T01:09:22;8.13;;;2.05;;
30173;SDS011;16985;50.814;8.530;2023-03-14T01:11:48;5.32;;;1.95;;
30173;SDS011;16985;50.814;8.530;2023-03-14T01:14:15;4.72;;;1.42;;
30173;SDS011;16985;50.814;8.530;2023-03-14T01:16:42;5.55;;;2.00;;
30173;SDS011;16985;50.814;8.530;2023-03-14T01:19:09;9.13;;;2.20;;
30173;SDS011;16985;50.814;8.530;2023-03-14T01:21:42;8.85;;;1.52;;
30173;SDS011;16985;50.814;8.530;2023-03-14T01:24:10;5.03;;;1.80;;
30173;SDS011;16985;50.814;8.530;2023-03-14T01:26:36;8.32;;;1.90;;
30173;SDS011;16985;50.814;8.530;2023-03-14T01:29:04;6.85;;;2.03;;
30173;SDS011;16985;50.814;8.530;2023-03-14T01:33:58;5.80;;;2.00;;
30173;SDS011;16985;50.814;8.530;2023-03-14T01:36:24;5.80;;;1.67;;
30173;SDS011;16985;50.814;8.530;2023-03-14T01:38:50;5.28;;;2.05;;
30173;SDS011;16985;50.814;8.530;2023-03-14T01:41:24;5.18;;;2.20;;
30173;SDS011;16985;50.814;8.530;2023-03-14T01:43:52;10.40;;;2.42;;
30173;SDS011;16985;50.814;8.530;2023-03-14T01:46:30;6.20;;;2.30;;
30173;SDS011;16985;50.814;8.530;2023-03-14T01:49:27;4.55;;;1.63;;
30173;SDS011;16985;50.814;8.530;2023-03-14T01:52:04;7.22;;;2.28;;
30173;SDS011;16985;50.814;8.530;2023-03-14T01:54:41;8.57;;;2.30;;
30173;SDS011;16985;50.814;8.530;2023-03-14T01:57:19;4.10;;;1.73;;
30173;SDS011;16985;50.814;8.530;2023-03-14T01:59:51;6.32;;;2.28;;
30173;SDS011;16985;50.814;8.530;2023-03-14T02:02:22;7.68;;;2.25;;
30173;SDS011;16985;50.814;8.530;2023-03-14T02:04:52;8.60;;;2.00;;
30173;SDS011;16985;50.814;8.530;2023-03-14T02:07:24;8.35;;;2.05;;
30173;SDS011;16985;50.814;8.530;2023-03-14T02:10:12;6.70;;;2.35;;
30173;SDS011;16985;50.814;8.530;2023-03-14T02:12:39;6.65;;;2.30;;
30173;SDS011;16985;50.814;8.530;2023-03-14T02:15:13;8.15;;;2.38;;
30173;SDS011;16985;50.814;8.530;2023-03-14T02:17:49;5.78;;;2.17;;
30173;SDS011;16985;50.814;8.530;2023-03-14T02:20:57;8.68;;;2.15;;
30173;SDS011;16985;50.814;8.530;2023-03-14T02:23:41;5.80;;;2.17;;
30173;SDS011;16985;50.814;8.530;2023-03-14T02:26:22;7.10;;;2.20;;
30173;SDS011;16985;50.814;8.530;2023-03-14T02:28:57;7.78;;;2.58;;
30173;SDS011;16985;50.814;8.530;2023-03-14T02:31:23;7.72;;;2.70;;
30173;SDS011;16985;50.814;8.530;2023-03-14T02:33:49;8.40;;;2.67;;
30173;SDS011;16985;50.814;8.530;2023-03-14T02:36:16;3.38;;;1.90;;
30173;SDS011;16985;50.814;8.530;2023-03-14T02:38:50;8.30;;;2.10;;
30173;SDS011;16985;50.814;8.530;2023-03-14T02:41:27;5.78;;;2.00;;
30173;SDS011;16985;50.814;8.530;2023-03-14T02:44:01;6.05;;;1.92;;
30173;SDS011;16985;50.814;8.530;2023-03-14T02:46:27;2.75;;;1.63;;
30173;SDS011;16985;50.814;8.530;2023-03-14T02:48:54;3.10;;;1.40;;
30173;SDS011;16985;50.814;8.530;2023-03-14T02:51:26;7.80;;;1.88;;
30173;SDS011;16985;50.814;8.530;2023-03-14T02:53:54;4.13;;;1.30;;
30173;SDS011;16985;50.814;8.530;2023-03-14T02:56:21;1.75;;;1.40;;
30173;SDS011;16985;50.814;8.530;2023-03-14T02:59:03;3.08;;;1.20;;
30173;SDS011;16985;50.814;8.530;2023-03-14T03:01:42;5.18;;;1.42;;
30173;SDS011;16985;50.814;8.530;2023-03-14T03:04:08;5.68;;;1.88;;
30173;SDS011;16985;50.814;8.530;2023-03-14T03:06:34;3.90;;;1.65;;
30173;SDS011;16985;50.814;8.530;2023-03-14T03:09:00;4.45;;;1.80;;
30173;SDS011;16985;50.814;8.530;2023-03-14T03:11:26;4.35;;;1.95;;
30173;SDS011;16985;50.814;8.530;2023-03-14T03:13:52;5.68;;;1.98;;
30173;SDS011;16985;50.814;8.530;2023-03-14T03:16:18;6.70;;;2.35;;
30173;SDS011;16985;50.814;8.530;2023-03-14T03:18:44;6.22;;;2.25;;
30173;SDS011;16985;50.814;8.530;2023-03-14T03:21:10;6.57;;;2.63;;
30173;SDS011;16985;50.814;8.530;2023-03-14T03:23:35;7.80;;;3.03;;
30173;SDS011;16985;50.814;8.530;2023-03-14T03:26:04;4.57;;;2.53;;
30173;SDS011;16985;50.814;8.530;2023-03-14T03:28:30;6.72;;;2.15;;
30173;SDS011;16985;50.814;8.530;2023-03-14T03:30:58;9.55;;;2.67;;
30173;SDS011;16985;50.814;8.530;2023-03-14T03:33:23;7.47;;;2.60;;
30173;SDS011;16985;50.814;8.530;2023-03-14T03:35:49;6.47;;;2.50;;
30173;SDS011;16985;50.814;8.530;2023-03-14T03:38:23;8.20;;;2.75;;
30173;SDS011;16985;50.814;8.530;2023-03-14T03:40:51;3.75;;;2.10;;
30173;SDS011;16985;50.814;8.530;2023-03-14T03:43:18;11.45;;;2.75;;
30173;SDS011;16985;50.814;8.530;2023-03-14T03:45:46;12.38;;;2.63;;
30173;SDS011;16985;50.814;8.530;2023-03-14T03:48:12;9.10;;;2.47;;
30173;SDS011;16985;50.814;8.530;2023-03-14T03:50:43;7.35;;;2.10;;
30173;SDS011;16985;50.814;8.530;2023-03-14T03:53:15;16.65;;;3.00;;
30173;SDS011;16985;50.814;8.530;2023-03-14T03:55:41;5.75;;;2.53;;
30173;SDS011;16985;50.814;8.530;2023-03-14T03:58:08;8.02;;;2.15;;
30173;SDS011;16985;50.814;8.530;2023-03-14T04:00:49;13.23;;;3.60;;
30173;SDS011;16985;50.814;8.530;2023-03-14T04:03:15;7.88;;;2.88;;
30173;SDS011;16985;50.814;8.530;2023-03-14T04:05:41;13.00;;;3.08;;
30173;SDS011;16985;50.814;8.530;2023-03-14T04:08:08;15.52;;;3.00;;
30173;SDS011;16985;50.814;8.530;2023-03-14T04:10:34;11.15;;;2.33;;
30173;SDS011;16985;50.814;8.530;2023-03-14T04:13:05;12.23;;;2.88;;
30173;SDS011;16985;50.814;8.530;2023-03-14T04:15:33;8.57;;;2.83;;
30173;SDS011;16985;50.814;8.530;2023-03-14T04:18:03;5.90;;;2.20;;
30173;SDS011;16985;50.814;8.530;2023-03-14T04:20:30;9.90;;;1.88;;
30173;SDS011;16985;50.814;8.530;2023-03-14T04:22:56;4.38;;;1.95;;
30173;SDS011;16985;50.814;8.530;2023-03-14T04:25:22;8.63;;;2.33;;
30173;SDS011;16985;50.814;8.530;2023-03-14T04:27:53;9.48;;;2.60;;
30173;SDS011;16985;50.814;8.530;2023-03-14T04:30:23;6.85;;;2.35;;
30173;SDS011;16985;50.814;8.530;2023-03-14T04:32:55;8.05;;;2.10;;
30173;SDS011;16985;50.814;8.530;2023-03-14T04:35:23;13.60;;;2.22;;
30173;SDS011;16985;50.814;8.530;2023-03-14T04:37:53;8.43;;;2.45;;
30173;SDS011;16985;50.814;8.530;2023-03-14T04:40:20;9.82;;;2.28;;
30173;SDS011;16985;50.814;8.530;2023-03-14T04:42:48;9.40;;;2.47;;
30173;SDS011;16985;50.814;8.530;2023-03-14T04:45:14;10.50;;;2.30;;
30173;SDS011;16985;50.814;8.530;2023-03-14T04:47:43;10.88;;;2.70;;
30173;SDS011;16985;50.814;8.530;2023-03-14T04:50:23;5.00;;;2.00;;
30173;SDS011;16985;50.814;8.530;2023-03-14T04:52:49;5.82;;;2.33;;
30173;SDS011;16985;50.814;8.530;2023-03-14T04:55:16;5.38;;;2.90;;
30173;SDS011;16985;50.814;8.530;2023-03-14T04:57:42;10.23;;;3.40;;
30173;SDS011;16985;50.814;8.530;2023-03-14T05:00:24;6.90;;;1.70;;
30173;SDS011;16985;50.814;8.530;2023-03-14T05:03:06;9.57;;;1.98;;
30173;SDS011;16985;50.814;8.530;2023-03-14T05:06:07;3.55;;;1.67;;
30173;SDS011;16985;50.814;8.530;2023-03-14T05:08:50;11.60;;;2.47;;
30173;SDS011;16985;50.814;8.530;2023-03-14T05:11:36;6.97;;;1.98;;
30173;SDS011;16985;50.814;8.530;2023-03-14T05:14:31;7.90;;;1.92;;
30173;SDS011;16985;50.814;8.530;2023-03-14T05:17:17;8.05;;;1.92;;
30173;SDS011;16985;50.814;8.530;2023-03-14T05:20:02;6.95;;;1.98;;
30173;SDS011;16985;50.814;8.530;2023-03-14T05:22:56;6.57;;;1.92;;
30173;SDS011;16985;50.814;8.530;2023-03-14T05:25:42;7.22;;;1.80;;
30173;SDS011;16985;50.814;8.530;2023-03-14T05:28:24;7.03;;;1.75;;
30173;SDS011;16985;50.814;8.530;2023-03-14T05:31:05;9.35;;;2.13;;
30173;SDS011;16985;50.814;8.530;2023-03-14T05:33:46;5.38;;;1.58;;
30173;SDS011;16985;50.814;8.530;2023-03-14T05:36:47;6.65;;;1.80;;
30173;SDS011;16985;50.814;8.530;2023-03-14T05:39:46;4.55;;;1.50;;
30173;SDS011;16985;50.814;8.530;2023-03-14T05:42:31;4.60;;;1.70;;
30173;SDS011;16985;50.814;8.530;2023-03-14T05:45:24;4.32;;;1.60;;
30173;SDS011;16985;50.814;8.530;2023-03-14T05:48:15;3.88;;;1.50;;
30173;SDS011;16985;50.814;8.530;2023-03-14T05:50:42;4.53;;;1.52;;
30173;SDS011;16985;50.814;8.530;2023-03-14T05:53:28;7.65;;;2.17;;
30173;SDS011;16985;50.814;8.530;2023-03-14T05:56:20;7.30;;;1.77;;
30173;SDS011;16985;50.814;8.530;2023-03-14T05:58:56;4.00;;;1.52;;
30173;SDS011;16985;50.814;8.530;2023-03-14T06:01:34;11.07;;;2.20;;
30173;SDS011;16985;50.814;8.530;2023-03-14T06:04:19;7.75;;;2.25;;
30173;SDS011;16985;50.814;8.530;2023-03-14T06:06:49;5.20;;;1.88;;
30173;SDS011;16985;50.814;8.530;2023-03-14T06:09:16;7.30;;;2.13;;
30173;SDS011;16985;50.814;8.530;2023-03-14T06:11:44;9.38;;;2.17;;
30173;SDS011;16985;50.814;8.530;2023-03-14T06:14:11;5.97;;;2.03;;
30173;SDS011;16985;50.814;8.530;2023-03-14T06:16:41;4.10;;;1.90;;
30173;SDS011;16985;50.814;8.530;2023-03-14T06:19:23;4.18;;;1.83;;
30173;SDS011;16985;50.814;8.530;2023-03-14T06:21:50;5.75;;;1.90;;
30173;SDS011;16985;50.814;8.530;2023-03-14T06:24:17;3.88;;;1.50;;
30173;SDS011;16985;50.814;8.530;2023-03-14T06:26:46;4.75;;;1.88;;
30173;SDS011;16985;50.814;8.530;2023-03-14T06:29:13;6.55;;;1.92;;
30173;SDS011;16985;50.814;8.530;2023-03-14T06:31:39;2.97;;;1.90;;
30173;SDS011;16985;50.814;8.530;2023-03-14T06:34:06;8.23;;;2.28;;
30173;SDS011;16985;50.814;8.530;2023-03-14T06:36:32;4.07;;;2.15;;
30173;SDS011;16985;50.814;8.530;2023-03-14T06:38:58;4.25;;;2.22;;
30173;SDS011;16985;50.814;8.530;2023-03-14T06:41:25;9.20;;;1.98;;
30173;SDS011;16985;50.814;8.530;2023-03-14T06:43:52;4.47;;;1.90;;
30173;SDS011;16985;50.814;8.530;2023-03-14T06:46:19;2.93;;;1.60;;
30173;SDS011;16985;50.814;8.530;2023-03-14T06:48:44;4.78;;;1.30;;
30173;SDS011;16985;50.814;8.530;2023-03-14T06:51:11;4.03;;;1.50;;
30173;SDS011;16985;50.814;8.530;2023-03-14T06:53:52;5.63;;;2.78;;
30173;SDS011;16985;50.814;8.530;2023-03-14T06:56:21;3.83;;;1.77;;
30173;SDS011;16985;50.814;8.530;2023-03-14T06:58:47;5.20;;;1.65;;
30173;SDS011;16985;50.814;8.530;2023-03-14T07:01:31;2.90;;;1.52;;
30173;SDS011;16985;50.814;8.530;2023-03-14T07:04:04;5.43;;;2.80;;
30173;SDS011;16985;50.814;8.530;2023-03-14T07:06:30;3.90;;;2.65;;
30173;SDS011;16985;50.814;8.530;2023-03-14T07:08:58;1.95;;;1.30;;
30173;SDS011;16985;50.814;8.530;2023-03-14T07:11:24;4.05;;;1.33;;
30173;SDS011;16985;50.814;8.530;2023-03-14T07:13:51;0.90;;;0.90;;
30173;SDS011;16985;50.814;8.530;2023-03-14T07:16:17;1.88;;;1.33;;
30173;SDS011;16985;50.814;8.530;2023-03-14T07:18:43;2.45;;;1.00;;
30173;SDS011;16985;50.814;8.530;2023-03-14T07:21:09;3.17;;;1.02;;
30173;SDS011;16985;50.814;8.530;2023-03-14T07:23:36;6.65;;;1.20;;
30173;SDS011;16985;50.814;8.530;2023-03-14T07:26:01;3.22;;;0.95;;
30173;SDS011;16985;50.814;8.530;2023-03-14T07:28:29;3.08;;;1.30;;
30173;SDS011;16985;50.814;8.530;2023-03-14T07:31:06;1.40;;;1.00;;
30173;SDS011;16985;50.814;8.530;2023-03-14T07:33:33;4.15;;;1.00;;
30173;SDS011;16985;50.814;8.530;2023-03-14T07:36:00;2.70;;;0.82;;
30173;SDS011;16985;50.814;8.530;2023-03-14T07:38:43;3.47;;;1.00;;
30173;SDS011;16985;50.814;8.530;2023-03-14T07:41:32;1.05;;;0.80;;
30173;SDS011;16985;50.814;8.530;2023-03-14T07:44:21;1.35;;;0.95;;
30173;SDS011;16985;50.814;8.530;2023-03-14T07:46:47;1.08;;;0.90;;
30173;SDS011;16985;50.814;8.530;2023-03-14T07:49:12;2.63;;;1.10;;
30173;SDS011;16985;50.814;8.530;2023-03-14T07:51:38;1.60;;;1.05;;
30173;SDS011;16985;50.814;8.530;2023-03-14T07:54:04;1.27;;;0.80;;
30173;SDS011;16985;50.814;8.530;2023-03-14T07:56:30;2.85;;;0.80;;
30173;SDS011;16985;50.814;8.530;2023-03-14T07:58:56;0.90;;;0.80;;
30173;SDS011;16985;50.814;8.530;2023-03-14T08:01:22;1.42;;;0.80;;
30173;SDS011;16985;50.814;8.530;2023-03-14T08:03:48;3.08;;;0.80;;
30173;SDS011;16985;50.814;8.530;2023-03-14T08:06:14;1.77;;;0.80;;
30173;SDS011;16985;50.814;8.530;2023-03-14T08:08:39;2.45;;;1.02;;
30173;SDS011;16985;50.814;8.530;2023-03-14T08:11:05;1.55;;;0.70;;
30173;SDS011;16985;50.814;8.530;2023-03-14T08:13:35;2.58;;;0.98;;
30173;SDS011;16985;50.814;8.530;2023-03-14T08:16:02;1.77;;;0.88;;
30173;SDS011;16985;50.814;8.530;2023-03-14T08:18:29;1.75;;;0.95;;
30173;SDS011;16985;50.814;8.530;2023-03-14T08:21:10;2.63;;;0.80;;
30173;SDS011;16985;50.814;8.530;2023-03-14T08:23:36;2.63;;;1.63;;
30173;SDS011;16985;50.814;8.530;2023-03-14T08:26:02;4.10;;;0.90;;
30173;SDS011;16985;50.814;8.530;2023-03-14T08:28:28;1.25;;;0.88;;
30173;SDS011;16985;50.814;8.530;2023-03-14T08:30:58;4.33;;;1.07;;
30173;SDS011;16985;50.814;8.530;2023-03-14T08:33:26;1.27;;;0.93;;
30173;SDS011;16985;50.814;8.530;2023-03-14T08:35:54;1.95;;;0.70;;
30173;SDS011;16985;50.814;8.530;2023-03-14T08:38:21;5.93;;;1.08;;
30173;SDS011;16985;50.814;8.530;2023-03-14T08:40:47;1.27;;;1.02;;
30173;SDS011;16985;50.814;8.530;2023-03-14T08:43:14;1.10;;;0.98;;
30173;SDS011;16985;50.814;8.530;2023-03-14T08:45:40;3.95;;;1.15;;
30173;SDS011;16985;50.814;8.530;2023-03-14T08:48:05;1.63;;;1.27;;
30173;SDS011;16985;50.814;8.530;2023-03-14T08:50:31;2.08;;;1.23;;
30173;SDS011;16985;50.814;8.530;2023-03-14T08:52:58;2.95;;;1.45;;
30173;SDS011;16985;50.814;8.530;2023-03-14T08:55:25;3.33;;;1.57;;
30173;SDS011;16985;50.814;8.530;2023-03-14T08:58:06;2.95;;;1.13;;
30173;SDS011;16985;50.814;8.530;2023-03-14T09:00:32;2.25;;;1.15;;
30173;SDS011;16985;50.814;8.530;2023-03-14T09:02:57;1.10;;;0.80;;
30173;SDS011;16985;50.814;8.530;2023-03-14T09:05:23;1.65;;;0.85;;
30173;SDS011;16985;50.814;8.530;2023-03-14T09:07:49;1.83;;;1.23;;
30173;SDS011;16985;50.814;8.530;2023-03-14T09:10:15;1.25;;;0.70;;
30173;SDS011;16985;50.814;8.530;2023-03-14T09:12:41;2.17;;;1.02;;
30173;SDS011;16985;50.814;8.530;2023-03-14T09:15:10;1.13;;;0.90;;
30173;SDS011;16985;50.814;8.530;2023-03-14T09:17:36;3.67;;;1.17;;
30173;SDS011;16985;50.814;8.530;2023-03-14T09:20:02;2.47;;;1.00;;
30173;SDS011;16985;50.814;8.530;2023-03-14T09:22:33;1.15;;;0.80;;
30173;SDS011;16985;50.814;8.530;2023-03-14T09:25:01;1.20;;;0.85;;
30173;SDS011;16985;50.814;8.530;2023-03-14T09:27:29;2.05;;;0.63;;
30173;SDS011;16985;50.814;8.530;2023-03-14T09:29:55;1.10;;;0.73;;
30173;SDS011;16985;50.814;8.530;2023-03-14T09:32:21;1.00;;;0.88;;
30173;SDS011;16985;50.814;8.530;2023-03-14T09:34:47;2.90;;;0.77;;
30173;SDS011;16985;50.814;8.530;2023-03-14T09:37:17;0.93;;;0.93;;
30173;SDS011;16985;50.814;8.530;2023-03-14T09:39:42;1.95;;;0.88;;
30173;SDS011;16985;50.814;8.530;2023-03-14T09:42:12;3.72;;;1.00;;
30173;SDS011;16985;50.814;8.530;2023-03-14T09:44:58;2.58;;;0.80;;
30173;SDS011;16985;50.814;8.530;2023-03-14T09:47:30;0.70;;;0.70;;
30173;SDS011;16985;50.814;8.530;2023-03-14T09:55:05;3.78;;;0.90;;
30173;SDS011;16985;50.814;8.530;2023-03-14T09:57:39;0.70;;;0.70;;
30173;SDS011;16985;50.814;8.530;2023-03-14T10:00:16;0.65;;;0.60;;
30173;SDS011;16985;50.814;8.530;2023-03-14T10:02:49;1.17;;;0.90;;
30173;SDS011;16985;50.814;8.530;2023-03-14T10:05:23;0.60;;;0.60;;
30173;SDS011;16985;50.814;8.530;2023-03-14T10:10:20;2.53;;;0.90;;
30173;SDS011;16985;50.814;8.530;2023-03-14T10:12:55;1.10;;;1.00;;
30173;SDS011;16985;50.814;8.530;2023-03-14T10:15:35;0.98;;;0.80;;
30173;SDS011;16985;50.814;8.530;2023-03-14T10:18:03;0.70;;;0.70;;
30173;SDS011;16985;50.814;8.530;2023-03-14T10:20:42;1.02;;;0.80;;
30173;SDS011;16985;50.814;8.530;2023-03-14T10:25:40;0.60;;;0.60;;
30173;SDS011;16985;50.814;8.530;2023-03-14T10:28:26;0.80;;;0.70;;
30173;SDS011;16985;50.814;8.530;2023-03-14T10:30:59;0.70;;;0.70;;
30173;SDS011;16985;50.814;8.530;2023-03-14T10:38:31;0.60;;;0.60;;
30173;SDS011;16985;50.814;8.530;2023-03-14T10:40:59;0.70;;;0.70;;
30173;SDS011;16985;50.814;8.530;2023-03-14T10:43:27;1.52;;;0.63;;
30173;SDS011;16985;50.814;8.530;2023-03-14T10:46:02;2.78;;;0.70;;
30173;SDS011;16985;50.814;8.530;2023-03-14T10:48:56;0.65;;;0.52;;
30173;SDS011;16985;50.814;8.530;2023-03-14T10:51:26;0.85;;;0.70;;
30173;SDS011;16985;50.814;8.530;2023-03-14T10:56:39;0.65;;;0.65;;
30173;SDS011;16985;50.814;8.530;2023-03-14T10:59:13;0.63;;;0.63;;
30173;SDS011;16985;50.814;8.530;2023-03-14T11:01:41;0.65;;;0.60;;
30173;SDS011;16985;50.814;8.530;2023-03-14T11:07:36;6.88;;;1.33;;
30173;SDS011;16985;50.814;8.530;2023-03-14T11:10:19;1.42;;;0.80;;
30173;SDS011;16985;50.814;8.530;2023-03-14T11:19:34;0.70;;;0.70;;
30173;SDS011;16985;50.814;8.530;2023-03-14T11:27:21;0.85;;;0.80;;
30173;SDS011;16985;50.814;8.530;2023-03-14T11:30:32;0.50;;;0.50;;
30173;SDS011;16985;50.814;8.530;2023-03-14T11:33:38;0.60;;;0.60;;
30173;SDS011;16985;50.814;8.530;2023-03-14T11:36:15;0.50;;;0.50;;
30173;SDS011;16985;50.814;8.530;2023-03-14T11:38:49;0.60;;;0.60;;
30173;SDS011;16985;50.814;8.530;2023-03-14T11:41:19;0.70;;;0.70;;
30173;SDS011;16985;50.814;8.530;2023-03-14T11:43:59;3.60;;;0.68;;
30173;SDS011;16985;50.814;8.530;2023-03-14T11:46:36;0.65;;;0.52;;
30173;SDS011;16985;50.814;8.530;2023-03-14T11:52:05;0.60;;;0.60;;
30173;SDS011;16985;50.814;8.530;2023-03-14T11:54:46;0.40;;;0.40;;
30173;SDS011;16985;50.814;8.530;2023-03-14T11:57:32;0.45;;;0.45;;
30173;SDS011;16985;50.814;8.530;2023-03-14T12:00:00;0.50;;;0.50;;
30173;SDS011;16985;50.814;8.530;2023-03-14T12:08:32;0.60;;;0.55;;
30173;SDS011;16985;50.814;8.530;2023-03-14T12:11:06;0.50;;;0.50;;
30173;SDS011;16985;50.814;8.530;2023-03-14T12:13:48;0.60;;;0.60;;
30173;SDS011;16985;50.814;8.530;2023-03-14T12:18:48;0.68;;;0.68;;
30173;SDS011;16985;50.814;8.530;2023-03-14T12:21:15;0.95;;;0.70;;
30173;SDS011;16985;50.814;8.530;2023-03-14T12:28:36;1.15;;;0.60;;
30173;SDS011;16985;50.814;8.530;2023-03-14T12:34:02;0.65;;;0.65;;
30173;SDS011;16985;50.814;8.530;2023-03-14T12:36:48;0.55;;;0.55;;
30173;SDS011;16985;50.814;8.530;2023-03-14T12:42:02;0.60;;;0.60;;
30173;SDS011;16985;50.814;8.530;2023-03-14T12:44:52;1.27;;;0.70;;
30173;SDS011;16985;50.814;8.530;2023-03-14T12:49:44;2.05;;;1.50;;
30173;SDS011;16985;50.814;8.530;2023-03-14T12:52:21;0.80;;;0.80;;
30173;SDS011;16985;50.814;8.530;2023-03-14T12:57:33;0.82;;;0.82;;
30173;SDS011;16985;50.814;8.530;2023-03-14T13:00:20;2.05;;;1.27;;
30173;SDS011;16985;50.814;8.530;2023-03-14T13:03:00;2.20;;;1.10;;
30173;SDS011;16985;50.814;8.530;2023-03-14T13:05:52;1.70;;;1.08;;
30173;SDS011;16985;50.814;8.530;2023-03-14T13:11:20;1.50;;;1.00;;
30173;SDS011;16985;50.814;8.530;2023-03-14T13:13:52;1.23;;;0.90;;
30173;SDS011;16985;50.814;8.530;2023-03-14T13:16:23;1.10;;;0.98;;
30173;SDS011;16985;50.814;8.530;2023-03-14T13:18:59;0.57;;;0.57;;
30173;SDS011;16985;50.814;8.530;2023-03-14T13:21:28;1.60;;;0.60;;
30173;SDS011;16985;50.814;8.530;2023-03-14T13:24:02;1.13;;;0.80;;
30173;SDS011;16985;50.814;8.530;2023-03-14T13:26:43;0.63;;;0.63;;
30173;SDS011;16985;50.814;8.530;2023-03-14T13:29:19;0.80;;;0.80;;
30173;SDS011;16985;50.814;8.530;2023-03-14T13:31:49;1.45;;;0.90;;
30173;SDS011;16985;50.814;8.530;2023-03-14T13:34:18;1.05;;;0.70;;
30173;SDS011;16985;50.814;8.530;2023-03-14T13:36:44;0.73;;;0.70;;
30173;SDS011;16985;50.814;8.530;2023-03-14T13:39:12;1.60;;;1.17;;
30173;SDS011;16985;50.814;8.530;2023-03-14T13:41:43;1.00;;;0.90;;
30173;SDS011;16985;50.814;8.530;2023-03-14T13:44:15;1.92;;;1.20;;
30173;SDS011;16985;50.814;8.530;2023-03-14T13:46:46;1.60;;;1.00;;
30173;SDS011;16985;50.814;8.530;2023-03-14T13:49:14;1.50;;;0.80;;
30173;SDS011;16985;50.814;8.530;2023-03-14T13:51:47;0.88;;;0.88;;
30173;SDS011;16985;50.814;8.530;2023-03-14T13:54:14;1.02;;;0.93;;
30173;SDS011;16985;50.814;8.530;2023-03-14T13:56:42;1.05;;;0.95;;
30173;SDS011;16985;50.814;8.530;2023-03-14T13:59:21;1.77;;;0.93;;
30173;SDS011;16985;50.814;8.530;2023-03-14T14:01:52;0.82;;;0.80;;
30173;SDS011;16985;50.814;8.530;2023-03-14T14:04:19;1.17;;;0.70;;
30173;SDS011;16985;50.814;8.530;2023-03-14T14:06:49;1.75;;;0.75;;
30173;SDS011;16985;50.814;8.530;2023-03-14T14:17:52;6.60;;;3.65;;
30173;SDS011;16985;50.814;8.530;2023-03-14T14:20:26;4.57;;;1.90;;
30173;SDS011;16985;50.814;8.530;2023-03-14T14:23:32;2.85;;;1.67;;
30173;SDS011;16985;50.814;8.530;2023-03-14T14:25:54;2.45;;;1.35;;
30173;SDS011;16985;50.814;8.530;2023-03-14T14:31:00;1.75;;;1.20;;
30173;SDS011;16985;50.814;8.530;2023-03-14T14:33:45;2.25;;;1.17;;
30173;SDS011;16985;50.814;8.530;2023-03-14T14:36:38;2.60;;;1.10;;
30173;SDS011;16985;50.814;8.530;2023-03-14T14:39:11;2.33;;;1.17;;
30173;SDS011;16985;50.814;8.530;2023-03-14T14:41:52;3.83;;;1.20;;
30173;SDS011;16985;50.814;8.530;2023-03-14T14:44:21;1.77;;;1.10;;
30173;SDS011;16985;50.814;8.530;2023-03-14T14:47:01;4.35;;;1.25;;
30173;SDS011;16985;50.814;8.530;2023-03-14T14:49:29;1.98;;;1.30;;
30173;SDS011;16985;50.814;8.530;2023-03-14T14:52:02;2.25;;;1.20;;
30173;SDS011;16985;50.814;8.530;2023-03-14T14:54:40;3.22;;;1.88;;
30173;SDS011;16985;50.814;8.530;2023-03-14T14:59:49;3.97;;;1.27;;
30173;SDS011;16985;50.814;8.530;2023-03-14T15:02:37;2.20;;;1.17;;
30173;SDS011;16985;50.814;8.530;2023-03-14T15:05:13;4.55;;;1.35;;
30173;SDS011;16985;50.814;8.530;2023-03-14T15:07:43;4.57;;;1.10;;
30173;SDS011;16985;50.814;8.530;2023-03-14T15:10:10;4.93;;;1.50;;
30173;SDS011;16985;50.814;8.530;2023-03-14T15:12:38;3.03;;;1.25;;
30173;SDS011;16985;50.814;8.530;2023-03-14T15:15:04;2.60;;;1.23;;
30173;SDS011;16985;50.814;8.530;2023-03-14T15:17:30;2.97;;;1.30;;
30173;SDS011;16985;50.814;8.530;2023-03-14T15:20:14;3.10;;;1.00;;
30173;SDS011;16985;50.814;8.530;2023-03-14T15:22:43;4.30;;;1.23;;
30173;SDS011;16985;50.814;8.530;2023-03-14T15:25:09;4.07;;;1.45;;
30173;SDS011;16985;50.814;8.530;2023-03-14T15:27:36;3.25;;;1.27;;
30173;SDS011;16985;50.814;8.530;2023-03-14T15:30:16;3.80;;;1.17;;
30173;SDS011;16985;50.814;8.530;2023-03-14T15:32:42;6.38;;;1.33;;
30173;SDS011;16985;50.814;8.530;2023-03-14T15:35:08;1.10;;;1.00;;
30173;SDS011;16985;50.814;8.530;2023-03-14T15:37:34;1.77;;;1.20;;
30173;SDS011;16985;50.814;8.530;2023-03-14T15:40:00;4.70;;;1.13;;
30173;SDS011;16985;50.814;8.530;2023-03-14T15:42:36;0.95;;;0.85;;
30173;SDS011;16985;50.814;8.530;2023-03-14T15:45:02;1.52;;;0.80;;
30173;SDS011;16985;50.814;8.530;2023-03-14T15:47:29;1.52;;;0.82;;
30173;SDS011;16985;50.814;8.530;2023-03-14T15:49:57;2.25;;;1.40;;
30173;SDS011;16985;50.814;8.530;2023-03-14T15:52:23;1.50;;;0.90;;
30173;SDS011;16985;50.814;8.530;2023-03-14T15:54:49;1.98;;;1.00;;
30173;SDS011;16985;50.814;8.530;2023-03-14T15:57:15;2.22;;;0.98;;
30173;SDS011;16985;50.814;8.530;2023-03-14T15:59:41;1.77;;;1.05;;
30173;SDS011;16985;50.814;8.530;2023-03-14T16:02:08;3.80;;;0.93;;
30173;SDS011;16985;50.814;8.530;2023-03-14T16:04:35;2.65;;;1.10;;
30173;SDS011;16985;50.814;8.530;2023-03-14T16:07:01;1.77;;;1.33;;
30173;SDS011;16985;50.814;8.530;2023-03-14T16:09:26;2.28;;;1.05;;
30173;SDS011;16985;50.814;8.530;2023-03-14T16:11:53;5.05;;;1.60;;
30173;SDS011;16985;50.814;8.530;2023-03-14T16:14:18;7.65;;;3.80;;
30173;SDS011;16985;50.814;8.530;2023-03-14T16:16:44;6.22;;;2.30;;
30173;SDS011;16985;50.814;8.530;2023-03-14T16:19:10;3.78;;;1.90;;
30173;SDS011;16985;50.814;8.530;2023-03-14T16:21:36;4.25;;;1.92;;
30173;SDS011;16985;50.814;8.530;2023-03-14T16:24:03;2.25;;;1.50;;
30173;SDS011;16985;50.814;8.530;2023-03-14T16:26:31;5.03;;;2.50;;
30173;SDS011;16985;50.814;8.530;2023-03-14T16:28:59;3.75;;;1.58;;
30173;SDS011;16985;50.814;8.530;2023-03-14T16:31:25;3.88;;;1.92;;
30173;SDS011;16985;50.814;8.530;2023-03-14T16:33:51;2.90;;;2.03;;